sensor_id;sensor_type;location;lat;lon;timestamp;pressure;altitude;pressure_sealevel;temperature;humidity
75089;BME280;63673;49.928;8.150;2023-03-01T00:00:43;1001.87;;;-0.97;100
75089;BME280;63673;49.928;8.150;2023-03-01T00:01:44;1001.82;;;-0.96;100
75089;BME280;63673;49.928;8.150;2023-03-01T00:02:46;1001.9;;;-0.96;100
75089;BME280;63673;49.928;8.150;2023-03-01T00:03:48;1001.88;;;-0.97;100
75089;BME280;63673;49.928;8.150;2023-03-01T00:04:50;1001.88;;;-0.98;100
75089;BME280;63673;49.928;8.150;2023-03-01T00:05:51;1001.87;;;-0.98;100
75089;BME280;63673;49.928;8.150;2023-03-01T00:06:53;1001.91;;;-0.99;100
75089;BME280;63673;49.928;8.150;2023-03-01T00:07:55;1001.87;;;-0.97;100
75089;BME280;63673;49.928;8.150;2023-03-01T00:08:57;1001.89;;;-0.97;100
75089;BME280;63673;49.928;8.150;2023-03-01T00:09:58;1001.85;;;-0.98;100
75089;BME280;63673;49.928;8.150;2023-03-01T00:11:01;1001.85;;;-0.98;100
75089;BME280;63673;49.928;8.150;2023-03-01T00:12:02;1001.89;;;-0.97;100
75089;BME280;63673;49.928;8.150;2023-03-01T00:13:04;1001.86;;;-0.97;100
75089;BME280;63673;49.928;8.150;2023-03-01T00:14:05;1001.95;;;-0.97;100
75089;BME280;63673;49.928;8.150;2023-03-01T00:15:07;1001.95;;;-0.95;100
75089;BME280;63673;49.928;8.150;2023-03-01T00:16:09;1001.92;;;-0.95;100
75089;BME280;63673;49.928;8.150;2023-03-01T00:17:10;1001.91;;;-0.94;100
75089;BME280;63673;49.928;8.150;2023-03-01T00:18:12;1001.91;;;-0.94;100
75089;BME280;63673;49.928;8.150;2023-03-01T00:19:15;1001.94;;;-0.92;100
75089;BME280;63673;49.928;8.150;2023-03-01T00:20:16;1001.92;;;-0.92;100
75089;BME280;63673;49.928;8.150;2023-03-01T00:21:18;1001.88;;;-0.93;100
75089;BME280;63673;49.928;8.150;2023-03-01T00:22:19;1001.89;;;-0.91;100
75089;BME280;63673;49.928;8.150;2023-03-01T00:23:22;1001.91;;;-0.91;100
75089;BME280;63673;49.928;8.150;2023-03-01T00:24:23;1001.92;;;-0.92;100
75089;BME280;63673;49.928;8.150;2023-03-01T00:25:24;1001.9;;;-0.91;100
75089;BME280;63673;49.928;8.150;2023-03-01T00:26:26;1001.91;;;-0.92;100
75089;BME280;63673;49.928;8.150;2023-03-01T00:27:28;1001.91;;;-0.9;100
75089;BME280;63673;49.928;8.150;2023-03-01T00:28:30;1001.89;;;-0.91;100
75089;BME280;63673;49.928;8.150;2023-03-01T00:29:31;1001.85;;;-0.91;100
75089;BME280;63673;49.928;8.150;2023-03-01T00:30:33;1001.92;;;-0.92;100
75089;BME280;63673;49.928;8.150;2023-03-01T00:31:35;1001.94;;;-0.91;100
75089;BME280;63673;49.928;8.150;2023-03-01T00:32:36;1001.92;;;-0.92;100
75089;BME280;63673;49.928;8.150;2023-03-01T00:33:38;1001.97;;;-0.92;100
75089;BME280;63673;49.928;8.150;2023-03-01T00:34:40;1001.95;;;-0.93;100
75089;BME280;63673;49.928;8.150;2023-03-01T00:35:42;1001.91;;;-0.96;100
75089;BME280;63673;49.928;8.150;2023-03-01T00:36:43;1001.91;;;-0.95;100
75089;BME280;63673;49.928;8.150;2023-03-01T00:37:45;1001.88;;;-0.96;100
75089;BME280;63673;49.928;8.150;2023-03-01T00:38:47;1001.8;;;-0.97;100
75089;BME280;63673;49.928;8.150;2023-03-01T00:39:49;1001.85;;;-0.99;100
75089;BME280;63673;49.928;8.150;2023-03-01T00:40:50;1001.81;;;-0.99;100
75089;BME280;63673;49.928;8.150;2023-03-01T00:41:52;1001.83;;;-0.99;100
75089;BME280;63673;49.928;8.150;2023-03-01T00:42:54;1001.8;;;-0.98;100
75089;BME280;63673;49.928;8.150;2023-03-01T00:43:56;1001.74;;;-0.99;100
75089;BME280;63673;49.928;8.150;2023-03-01T00:44:57;1001.83;;;-0.99;100
75089;BME280;63673;49.928;8.150;2023-03-01T00:46:00;1001.77;;;-0.99;100
75089;BME280;63673;49.928;8.150;2023-03-01T00:47:01;1001.74;;;-0.99;100
75089;BME280;63673;49.928;8.150;2023-03-01T00:48:03;1001.77;;;-0.99;100
75089;BME280;63673;49.928;8.150;2023-03-01T00:49:04;1001.76;;;-0.98;100
75089;BME280;63673;49.928;8.150;2023-03-01T00:50:06;1001.75;;;-0.99;100
75089;BME280;63673;49.928;8.150;2023-03-01T00:51:09;1001.76;;;-0.96;100
75089;BME280;63673;49.928;8.150;2023-03-01T00:52:09;1001.78;;;-0.97;100
75089;BME280;63673;49.928;8.150;2023-03-01T00:53:11;1001.58;;;-0.95;100
75089;BME280;63673;49.928;8.150;2023-03-01T00:54:13;1001.76;;;-0.95;100
75089;BME280;63673;49.928;8.150;2023-03-01T00:55:15;1001.78;;;-0.94;100
75089;BME280;63673;49.928;8.150;2023-03-01T00:56:16;1001.72;;;-0.93;100
75089;BME280;63673;49.928;8.150;2023-03-01T00:57:18;1001.7;;;-0.95;100
75089;BME280;63673;49.928;8.150;2023-03-01T00:58:20;1001.67;;;-0.93;100
75089;BME280;63673;49.928;8.150;2023-03-01T00:59:22;1001.68;;;-0.95;100
75089;BME280;63673;49.928;8.150;2023-03-01T01:00:23;1001.65;;;-0.93;100
75089;BME280;63673;49.928;8.150;2023-03-01T01:01:27;1001.7;;;-0.94;100
75089;BME280;63673;49.928;8.150;2023-03-01T01:02:27;1001.62;;;-0.93;100
75089;BME280;63673;49.928;8.150;2023-03-01T01:03:28;1001.66;;;-0.95;100
75089;BME280;63673;49.928;8.150;2023-03-01T01:04:30;1001.62;;;-0.94;100
75089;BME280;63673;49.928;8.150;2023-03-01T01:05:34;1001.55;;;-0.94;100
75089;BME280;63673;49.928;8.150;2023-03-01T01:06:35;1001.64;;;-0.96;100
75089;BME280;63673;49.928;8.150;2023-03-01T01:07:35;1001.65;;;-0.96;100
75089;BME280;63673;49.928;8.150;2023-03-01T01:08:37;1001.65;;;-0.98;100
75089;BME280;63673;49.928;8.150;2023-03-01T01:09:39;1001.59;;;-0.98;100
75089;BME280;63673;49.928;8.150;2023-03-01T01:10:42;1001.56;;;-0.98;100
75089;BME280;63673;49.928;8.150;2023-03-01T01:11:43;1001.52;;;-0.99;100
75089;BME280;63673;49.928;8.150;2023-03-01T01:12:44;1001.59;;;-0.98;100
75089;BME280;63673;49.928;8.150;2023-03-01T01:13:46;1001.55;;;-0.99;100
75089;BME280;63673;49.928;8.150;2023-03-01T01:14:48;1001.56;;;-0.99;100
75089;BME280;63673;49.928;8.150;2023-03-01T01:15:49;1001.51;;;-1.01;100
75089;BME280;63673;49.928;8.150;2023-03-01T01:16:51;1001.56;;;-1;100
75089;BME280;63673;49.928;8.150;2023-03-01T01:17:53;1001.47;;;-1;100
75089;BME280;63673;49.928;8.150;2023-03-01T01:18:55;1001.46;;;-0.99;100
75089;BME280;63673;49.928;8.150;2023-03-01T01:19:56;1001.48;;;-1.01;100
75089;BME280;63673;49.928;8.150;2023-03-01T01:21:02;1001.43;;;-1.02;100
75089;BME280;63673;49.928;8.150;2023-03-01T01:22:00;1001.42;;;-1;100
75089;BME280;63673;49.928;8.150;2023-03-01T01:23:01;1001.43;;;-1.02;100
75089;BME280;63673;49.928;8.150;2023-03-01T01:24:03;1001.4;;;-1.02;100
75089;BME280;63673;49.928;8.150;2023-03-01T01:25:05;1001.37;;;-1.02;100
75089;BME280;63673;49.928;8.150;2023-03-01T01:26:08;1001.38;;;-1.03;100
75089;BME280;63673;49.928;8.150;2023-03-01T01:27:08;1001.33;;;-1.03;100
75089;BME280;63673;49.928;8.150;2023-03-01T01:28:11;1001.25;;;-1.03;100
75089;BME280;63673;49.928;8.150;2023-03-01T01:29:12;1001.22;;;-1.04;100
75089;BME280;63673;49.928;8.150;2023-03-01T01:30:14;1001.28;;;-1.04;100
75089;BME280;63673;49.928;8.150;2023-03-01T01:31:16;1001.28;;;-1.04;100
75089;BME280;63673;49.928;8.150;2023-03-01T01:32:17;1001.24;;;-1.03;100
75089;BME280;63673;49.928;8.150;2023-03-01T01:33:19;1001.32;;;-1.04;100
75089;BME280;63673;49.928;8.150;2023-03-01T01:34:21;1001.29;;;-1.05;100
75089;BME280;63673;49.928;8.150;2023-03-01T01:35:22;1001.25;;;-1.05;100
75089;BME280;63673;49.928;8.150;2023-03-01T01:36:24;1001.23;;;-1.04;100
75089;BME280;63673;49.928;8.150;2023-03-01T01:37:26;1001.23;;;-1.05;100
75089;BME280;63673;49.928;8.150;2023-03-01T01:38:27;1001.25;;;-1.06;100
75089;BME280;63673;49.928;8.150;2023-03-01T01:39:29;1001.25;;;-1.06;100
75089;BME280;63673;49.928;8.150;2023-03-01T01:40:31;1001.23;;;-1.06;100
75089;BME280;63673;49.928;8.150;2023-03-01T01:41:33;1001.18;;;-1.06;100
75089;BME280;63673;49.928;8.150;2023-03-01T01:42:34;1001.22;;;-1.07;100
75089;BME280;63673;49.928;8.150;2023-03-01T01:43:37;1001.18;;;-1.09;100
75089;BME280;63673;49.928;8.150;2023-03-01T01:44:39;1001.17;;;-1.1;100
75089;BME280;63673;49.928;8.150;2023-03-01T01:45:40;1001.16;;;-1.1;100
75089;BME280;63673;49.928;8.150;2023-03-01T01:46:41;1001.16;;;-1.12;100
75089;BME280;63673;49.928;8.150;2023-03-01T01:47:43;1001.17;;;-1.11;100
75089;BME280;63673;49.928;8.150;2023-03-01T01:48:46;1001.09;;;-1.13;100
75089;BME280;63673;49.928;8.150;2023-03-01T01:49:47;1001.17;;;-1.13;100
75089;BME280;63673;49.928;8.150;2023-03-01T01:50:51;1001.14;;;-1.15;100
75089;BME280;63673;49.928;8.150;2023-03-01T01:51:51;1001.12;;;-1.16;100
75089;BME280;63673;49.928;8.150;2023-03-01T01:52:52;1001.07;;;-1.16;100
75089;BME280;63673;49.928;8.150;2023-03-01T01:53:55;1001.12;;;-1.17;100
75089;BME280;63673;49.928;8.150;2023-03-01T01:54:56;1001.1;;;-1.18;100
75089;BME280;63673;49.928;8.150;2023-03-01T01:55:58;1001.1;;;-1.19;100
75089;BME280;63673;49.928;8.150;2023-03-01T01:56:59;1001.08;;;-1.18;100
75089;BME280;63673;49.928;8.150;2023-03-01T01:58:02;1001.04;;;-1.19;100
75089;BME280;63673;49.928;8.150;2023-03-01T01:59:02;1001.1;;;-1.19;100
75089;BME280;63673;49.928;8.150;2023-03-01T02:00:05;1001.07;;;-1.21;100
75089;BME280;63673;49.928;8.150;2023-03-01T02:01:06;1001.02;;;-1.22;100
75089;BME280;63673;49.928;8.150;2023-03-01T02:02:07;1001.04;;;-1.21;100
75089;BME280;63673;49.928;8.150;2023-03-01T02:03:10;1000.94;;;-1.21;100
75089;BME280;63673;49.928;8.150;2023-03-01T02:04:11;1001.02;;;-1.23;100
75089;BME280;63673;49.928;8.150;2023-03-01T02:05:14;1000.98;;;-1.23;100
75089;BME280;63673;49.928;8.150;2023-03-01T02:06:17;1000.95;;;-1.24;100
75089;BME280;63673;49.928;8.150;2023-03-01T02:07:17;1000.99;;;-1.23;100
75089;BME280;63673;49.928;8.150;2023-03-01T02:08:18;1000.91;;;-1.24;100
75089;BME280;63673;49.928;8.150;2023-03-01T02:09:20;1000.92;;;-1.26;100
75089;BME280;63673;49.928;8.150;2023-03-01T02:10:22;1000.95;;;-1.24;100
75089;BME280;63673;49.928;8.150;2023-03-01T02:11:23;1000.98;;;-1.25;100
75089;BME280;63673;49.928;8.150;2023-03-01T02:12:25;1000.94;;;-1.25;100
75089;BME280;63673;49.928;8.150;2023-03-01T02:13:27;1000.94;;;-1.26;100
75089;BME280;63673;49.928;8.150;2023-03-01T02:14:28;1000.99;;;-1.26;100
75089;BME280;63673;49.928;8.150;2023-03-01T02:15:31;1000.91;;;-1.25;100
75089;BME280;63673;49.928;8.150;2023-03-01T02:16:32;1000.88;;;-1.25;100
75089;BME280;63673;49.928;8.150;2023-03-01T02:17:33;1000.93;;;-1.24;100
75089;BME280;63673;49.928;8.150;2023-03-01T02:18:35;1000.94;;;-1.24;100
75089;BME280;63673;49.928;8.150;2023-03-01T02:19:40;1000.99;;;-1.23;100
75089;BME280;63673;49.928;8.150;2023-03-01T02:20:40;1000.94;;;-1.22;100
75089;BME280;63673;49.928;8.150;2023-03-01T02:21:42;1000.92;;;-1.22;100
75089;BME280;63673;49.928;8.150;2023-03-01T02:22:43;1000.91;;;-1.22;100
75089;BME280;63673;49.928;8.150;2023-03-01T02:23:44;1000.84;;;-1.2;100
75089;BME280;63673;49.928;8.150;2023-03-01T02:24:47;1000.98;;;-1.2;100
75089;BME280;63673;49.928;8.150;2023-03-01T02:25:49;1000.97;;;-1.2;100
75089;BME280;63673;49.928;8.150;2023-03-01T02:26:50;1001.01;;;-1.19;100
75089;BME280;63673;49.928;8.150;2023-03-01T02:27:53;1000.93;;;-1.18;100
75089;BME280;63673;49.928;8.150;2023-03-01T02:28:52;1000.98;;;-1.17;100
75089;BME280;63673;49.928;8.150;2023-03-01T02:29:54;1001;;;-1.17;100
75089;BME280;63673;49.928;8.150;2023-03-01T02:30:56;1000.94;;;-1.16;100
75089;BME280;63673;49.928;8.150;2023-03-01T02:31:58;1000.92;;;-1.17;100
75089;BME280;63673;49.928;8.150;2023-03-01T02:33:00;1000.94;;;-1.16;100
75089;BME280;63673;49.928;8.150;2023-03-01T02:34:02;1000.89;;;-1.15;100
75089;BME280;63673;49.928;8.150;2023-03-01T02:35:03;1000.89;;;-1.15;100
75089;BME280;63673;49.928;8.150;2023-03-01T02:36:06;1000.85;;;-1.15;100
75089;BME280;63673;49.928;8.150;2023-03-01T02:37:07;1000.81;;;-1.14;100
75089;BME280;63673;49.928;8.150;2023-03-01T02:38:08;1000.83;;;-1.13;100
75089;BME280;63673;49.928;8.150;2023-03-01T02:39:11;1000.85;;;-1.13;100
75089;BME280;63673;49.928;8.150;2023-03-01T02:40:13;1000.8;;;-1.14;100
75089;BME280;63673;49.928;8.150;2023-03-01T02:41:15;1000.82;;;-1.12;100
75089;BME280;63673;49.928;8.150;2023-03-01T02:42:16;1000.82;;;-1.12;100
75089;BME280;63673;49.928;8.150;2023-03-01T02:43:17;1000.77;;;-1.13;100
75089;BME280;63673;49.928;8.150;2023-03-01T02:44:18;1000.71;;;-1.11;100
75089;BME280;63673;49.928;8.150;2023-03-01T02:45:20;1000.71;;;-1.12;100
75089;BME280;63673;49.928;8.150;2023-03-01T02:46:22;1000.62;;;-1.11;100
75089;BME280;63673;49.928;8.150;2023-03-01T02:47:24;1000.69;;;-1.1;100
75089;BME280;63673;49.928;8.150;2023-03-01T02:48:25;1000.69;;;-1.1;100
75089;BME280;63673;49.928;8.150;2023-03-01T02:49:28;1000.61;;;-1.09;100
75089;BME280;63673;49.928;8.150;2023-03-01T02:50:39;1000.66;;;-1.1;100
75089;BME280;63673;49.928;8.150;2023-03-01T02:51:34;1000.6;;;-1.08;100
75089;BME280;63673;49.928;8.150;2023-03-01T02:52:34;1000.6;;;-1.08;100
75089;BME280;63673;49.928;8.150;2023-03-01T02:53:35;1000.64;;;-1.08;100
75089;BME280;63673;49.928;8.150;2023-03-01T02:54:36;1000.57;;;-1.07;100
75089;BME280;63673;49.928;8.150;2023-03-01T02:55:37;1000.59;;;-1.07;100
75089;BME280;63673;49.928;8.150;2023-03-01T02:56:39;1000.6;;;-1.07;100
75089;BME280;63673;49.928;8.150;2023-03-01T02:57:42;1000.6;;;-1.07;100
75089;BME280;63673;49.928;8.150;2023-03-01T02:58:43;1000.61;;;-1.07;100
75089;BME280;63673;49.928;8.150;2023-03-01T02:59:44;1000.56;;;-1.06;100
75089;BME280;63673;49.928;8.150;2023-03-01T03:00:46;1000.52;;;-1.05;100
75089;BME280;63673;49.928;8.150;2023-03-01T03:01:48;1000.48;;;-1.04;100
75089;BME280;63673;49.928;8.150;2023-03-01T03:02:51;1000.54;;;-1.05;100
75089;BME280;63673;49.928;8.150;2023-03-01T03:03:51;1000.51;;;-1.04;100
75089;BME280;63673;49.928;8.150;2023-03-01T03:04:53;1000.44;;;-1.02;100
75089;BME280;63673;49.928;8.150;2023-03-01T03:05:55;1000.45;;;-1.03;100
75089;BME280;63673;49.928;8.150;2023-03-01T03:06:57;1000.43;;;-1.01;100
75089;BME280;63673;49.928;8.150;2023-03-01T03:07:59;1000.46;;;-1.02;100
75089;BME280;63673;49.928;8.150;2023-03-01T03:09:00;1000.38;;;-1.02;100
75089;BME280;63673;49.928;8.150;2023-03-01T03:10:02;1000.39;;;-1;100
75089;BME280;63673;49.928;8.150;2023-03-01T03:11:03;1000.39;;;-1.01;100
75089;BME280;63673;49.928;8.150;2023-03-01T03:12:05;1000.35;;;-1;100
75089;BME280;63673;49.928;8.150;2023-03-01T03:13:08;1000.32;;;-1.01;100
75089;BME280;63673;49.928;8.150;2023-03-01T03:14:09;1000.26;;;-1.01;100
75089;BME280;63673;49.928;8.150;2023-03-01T03:15:10;1000.32;;;-1;100
75089;BME280;63673;49.928;8.150;2023-03-01T03:16:12;1000.31;;;-0.99;100
75089;BME280;63673;49.928;8.150;2023-03-01T03:17:14;1000.29;;;-1;100
75089;BME280;63673;49.928;8.150;2023-03-01T03:18:16;1000.33;;;-0.98;100
75089;BME280;63673;49.928;8.150;2023-03-01T03:19:18;1000.34;;;-0.97;100
75089;BME280;63673;49.928;8.150;2023-03-01T03:20:20;1000.32;;;-0.98;100
75089;BME280;63673;49.928;8.150;2023-03-01T03:21:21;1000.26;;;-0.98;100
75089;BME280;63673;49.928;8.150;2023-03-01T03:22:23;1000.25;;;-0.96;100
75089;BME280;63673;49.928;8.150;2023-03-01T03:23:24;1000.22;;;-0.97;100
75089;BME280;63673;49.928;8.150;2023-03-01T03:24:26;1000.26;;;-0.97;100
75089;BME280;63673;49.928;8.150;2023-03-01T03:25:28;1000.26;;;-0.97;100
75089;BME280;63673;49.928;8.150;2023-03-01T03:26:29;1000.25;;;-0.96;100
75089;BME280;63673;49.928;8.150;2023-03-01T03:27:31;1000.25;;;-0.97;100
75089;BME280;63673;49.928;8.150;2023-03-01T03:28:33;1000.27;;;-0.96;100
75089;BME280;63673;49.928;8.150;2023-03-01T03:29:35;1000.25;;;-0.97;100
75089;BME280;63673;49.928;8.150;2023-03-01T03:30:37;1000.25;;;-0.96;100
75089;BME280;63673;49.928;8.150;2023-03-01T03:31:38;1000.27;;;-0.96;100
75089;BME280;63673;49.928;8.150;2023-03-01T03:32:40;1000.23;;;-0.96;100
75089;BME280;63673;49.928;8.150;2023-03-01T03:33:42;1000.3;;;-0.95;100
75089;BME280;63673;49.928;8.150;2023-03-01T03:34:43;1000.29;;;-0.94;100
75089;BME280;63673;49.928;8.150;2023-03-01T03:35:47;1000.23;;;-0.94;100
75089;BME280;63673;49.928;8.150;2023-03-01T03:36:47;1000.18;;;-0.95;100
75089;BME280;63673;49.928;8.150;2023-03-01T03:37:49;1000.16;;;-0.95;100
75089;BME280;63673;49.928;8.150;2023-03-01T03:38:50;1000.22;;;-0.95;100
75089;BME280;63673;49.928;8.150;2023-03-01T03:39:52;1000.3;;;-0.94;100
75089;BME280;63673;49.928;8.150;2023-03-01T03:40:59;1000.19;;;-0.94;100
75089;BME280;63673;49.928;8.150;2023-03-01T03:41:55;1000.25;;;-0.94;100
75089;BME280;63673;49.928;8.150;2023-03-01T03:42:57;1000.18;;;-0.96;100
75089;BME280;63673;49.928;8.150;2023-03-01T03:43:59;1000.19;;;-0.95;100
75089;BME280;63673;49.928;8.150;2023-03-01T03:45:01;1000.13;;;-0.95;100
75089;BME280;63673;49.928;8.150;2023-03-01T03:46:03;1000.12;;;-0.96;100
75089;BME280;63673;49.928;8.150;2023-03-01T03:47:04;1000.16;;;-0.94;100
75089;BME280;63673;49.928;8.150;2023-03-01T03:48:07;1000.18;;;-0.96;100
75089;BME280;63673;49.928;8.150;2023-03-01T03:49:08;1000.16;;;-0.93;100
75089;BME280;63673;49.928;8.150;2023-03-01T03:50:10;1000.14;;;-0.93;100
75089;BME280;63673;49.928;8.150;2023-03-01T03:51:11;1000.15;;;-0.94;100
75089;BME280;63673;49.928;8.150;2023-03-01T03:52:13;1000.04;;;-0.93;100
75089;BME280;63673;49.928;8.150;2023-03-01T03:53:15;1000.08;;;-0.93;100
75089;BME280;63673;49.928;8.150;2023-03-01T03:54:16;1000.12;;;-0.92;100
75089;BME280;63673;49.928;8.150;2023-03-01T03:55:18;1000.08;;;-0.92;100
75089;BME280;63673;49.928;8.150;2023-03-01T03:56:20;1000.01;;;-0.92;100
75089;BME280;63673;49.928;8.150;2023-03-01T03:57:22;999.99;;;-0.93;100
75089;BME280;63673;49.928;8.150;2023-03-01T03:58:24;999.95;;;-0.93;100
75089;BME280;63673;49.928;8.150;2023-03-01T03:59:25;999.99;;;-0.93;100
75089;BME280;63673;49.928;8.150;2023-03-01T04:00:27;999.97;;;-0.91;100
75089;BME280;63673;49.928;8.150;2023-03-01T04:01:29;999.93;;;-0.92;100
75089;BME280;63673;49.928;8.150;2023-03-01T04:02:30;999.95;;;-0.92;100
75089;BME280;63673;49.928;8.150;2023-03-01T04:03:32;999.92;;;-0.92;100
75089;BME280;63673;49.928;8.150;2023-03-01T04:04:34;999.89;;;-0.91;100
75089;BME280;63673;49.928;8.150;2023-03-01T04:05:36;999.9;;;-0.92;100
75089;BME280;63673;49.928;8.150;2023-03-01T04:06:37;999.85;;;-0.92;100
75089;BME280;63673;49.928;8.150;2023-03-01T04:07:39;999.85;;;-0.92;100
75089;BME280;63673;49.928;8.150;2023-03-01T04:08:41;999.9;;;-0.92;100
75089;BME280;63673;49.928;8.150;2023-03-01T04:09:43;999.86;;;-0.93;100
75089;BME280;63673;49.928;8.150;2023-03-01T04:10:45;999.9;;;-0.93;100
75089;BME280;63673;49.928;8.150;2023-03-01T04:11:46;999.91;;;-0.93;100
75089;BME280;63673;49.928;8.150;2023-03-01T04:12:48;999.9;;;-0.93;100
75089;BME280;63673;49.928;8.150;2023-03-01T04:13:49;999.87;;;-0.93;100
75089;BME280;63673;49.928;8.150;2023-03-01T04:14:51;999.8;;;-0.94;100
75089;BME280;63673;49.928;8.150;2023-03-01T04:15:53;999.86;;;-0.95;100
75089;BME280;63673;49.928;8.150;2023-03-01T04:16:54;999.88;;;-0.95;100
75089;BME280;63673;49.928;8.150;2023-03-01T04:17:56;999.88;;;-0.96;100
75089;BME280;63673;49.928;8.150;2023-03-01T04:18:58;999.86;;;-0.95;100
75089;BME280;63673;49.928;8.150;2023-03-01T04:20:00;999.91;;;-0.95;100
75089;BME280;63673;49.928;8.150;2023-03-01T04:21:01;999.91;;;-0.95;100
75089;BME280;63673;49.928;8.150;2023-03-01T04:22:03;999.91;;;-0.94;100
75089;BME280;63673;49.928;8.150;2023-03-01T04:23:05;999.92;;;-0.94;100
75089;BME280;63673;49.928;8.150;2023-03-01T04:24:07;999.81;;;-0.95;100
75089;BME280;63673;49.928;8.150;2023-03-01T04:25:08;999.91;;;-0.93;100
75089;BME280;63673;49.928;8.150;2023-03-01T04:26:10;999.97;;;-0.91;100
75089;BME280;63673;49.928;8.150;2023-03-01T04:27:12;999.94;;;-0.92;100
75089;BME280;63673;49.928;8.150;2023-03-01T04:28:14;999.96;;;-0.91;100
75089;BME280;63673;49.928;8.150;2023-03-01T04:29:15;999.89;;;-0.91;100
75089;BME280;63673;49.928;8.150;2023-03-01T04:30:17;999.91;;;-0.9;100
75089;BME280;63673;49.928;8.150;2023-03-01T04:31:19;999.92;;;-0.9;100
75089;BME280;63673;49.928;8.150;2023-03-01T04:32:20;999.95;;;-0.9;100
75089;BME280;63673;49.928;8.150;2023-03-01T04:33:22;999.94;;;-0.9;100
75089;BME280;63673;49.928;8.150;2023-03-01T04:34:24;999.94;;;-0.91;100
75089;BME280;63673;49.928;8.150;2023-03-01T04:35:26;999.96;;;-0.89;100
75089;BME280;63673;49.928;8.150;2023-03-01T04:36:28;999.99;;;-0.9;100
75089;BME280;63673;49.928;8.150;2023-03-01T04:37:29;999.96;;;-0.89;100
75089;BME280;63673;49.928;8.150;2023-03-01T04:38:31;999.93;;;-0.9;100
75089;BME280;63673;49.928;8.150;2023-03-01T04:39:33;999.99;;;-0.89;100
75089;BME280;63673;49.928;8.150;2023-03-01T04:40:35;999.95;;;-0.89;100
75089;BME280;63673;49.928;8.150;2023-03-01T04:41:36;999.92;;;-0.88;100
75089;BME280;63673;49.928;8.150;2023-03-01T04:42:38;999.9;;;-0.88;100
75089;BME280;63673;49.928;8.150;2023-03-01T04:43:40;999.94;;;-0.89;100
75089;BME280;63673;49.928;8.150;2023-03-01T04:44:41;1000;;;-0.89;100
75089;BME280;63673;49.928;8.150;2023-03-01T04:45:43;999.96;;;-0.88;100
75089;BME280;63673;49.928;8.150;2023-03-01T04:46:45;999.91;;;-0.89;100
75089;BME280;63673;49.928;8.150;2023-03-01T04:47:47;999.96;;;-0.9;100
75089;BME280;63673;49.928;8.150;2023-03-01T04:48:48;999.92;;;-0.89;100
75089;BME280;63673;49.928;8.150;2023-03-01T04:49:50;999.97;;;-0.89;100
75089;BME280;63673;49.928;8.150;2023-03-01T04:50:52;999.94;;;-0.9;100
75089;BME280;63673;49.928;8.150;2023-03-01T04:51:53;999.93;;;-0.9;100
75089;BME280;63673;49.928;8.150;2023-03-01T04:52:55;999.92;;;-0.9;100
75089;BME280;63673;49.928;8.150;2023-03-01T04:53:57;999.95;;;-0.91;100
75089;BME280;63673;49.928;8.150;2023-03-01T04:54:59;999.94;;;-0.9;100
75089;BME280;63673;49.928;8.150;2023-03-01T04:56:00;999.87;;;-0.91;100
75089;BME280;63673;49.928;8.150;2023-03-01T04:57:02;999.89;;;-0.92;100
75089;BME280;63673;49.928;8.150;2023-03-01T04:58:04;999.84;;;-0.91;100
75089;BME280;63673;49.928;8.150;2023-03-01T04:59:06;999.82;;;-0.92;100
75089;BME280;63673;49.928;8.150;2023-03-01T05:00:09;999.83;;;-0.92;100
75089;BME280;63673;49.928;8.150;2023-03-01T05:01:09;999.85;;;-0.93;100
75089;BME280;63673;49.928;8.150;2023-03-01T05:02:11;999.87;;;-0.93;100
75089;BME280;63673;49.928;8.150;2023-03-01T05:03:12;999.84;;;-0.93;100
75089;BME280;63673;49.928;8.150;2023-03-01T05:04:14;999.83;;;-0.93;100
75089;BME280;63673;49.928;8.150;2023-03-01T05:05:16;999.79;;;-0.94;100
75089;BME280;63673;49.928;8.150;2023-03-01T05:06:18;999.81;;;-0.94;100
75089;BME280;63673;49.928;8.150;2023-03-01T05:07:19;999.84;;;-0.91;100
75089;BME280;63673;49.928;8.150;2023-03-01T05:08:21;999.8;;;-0.92;100
75089;BME280;63673;49.928;8.150;2023-03-01T05:09:23;999.81;;;-0.91;100
75089;BME280;63673;49.928;8.150;2023-03-01T05:10:25;999.79;;;-0.91;100
75089;BME280;63673;49.928;8.150;2023-03-01T05:11:26;999.75;;;-0.91;100
75089;BME280;63673;49.928;8.150;2023-03-01T05:12:28;999.79;;;-0.9;100
75089;BME280;63673;49.928;8.150;2023-03-01T05:13:30;999.78;;;-0.9;100
75089;BME280;63673;49.928;8.150;2023-03-01T05:14:32;999.77;;;-0.91;100
75089;BME280;63673;49.928;8.150;2023-03-01T05:15:33;999.78;;;-0.92;100
75089;BME280;63673;49.928;8.150;2023-03-01T05:16:35;999.75;;;-0.91;100
75089;BME280;63673;49.928;8.150;2023-03-01T05:17:37;999.79;;;-0.93;100
75089;BME280;63673;49.928;8.150;2023-03-01T05:18:39;999.73;;;-0.92;100
75089;BME280;63673;49.928;8.150;2023-03-01T05:19:40;999.71;;;-0.93;100
75089;BME280;63673;49.928;8.150;2023-03-01T05:20:42;999.75;;;-0.95;100
75089;BME280;63673;49.928;8.150;2023-03-01T05:21:44;999.71;;;-0.94;100
75089;BME280;63673;49.928;8.150;2023-03-01T05:22:45;999.73;;;-0.96;100
75089;BME280;63673;49.928;8.150;2023-03-01T05:23:47;999.75;;;-0.95;100
75089;BME280;63673;49.928;8.150;2023-03-01T05:24:49;999.74;;;-0.96;100
75089;BME280;63673;49.928;8.150;2023-03-01T05:25:51;999.77;;;-0.96;100
75089;BME280;63673;49.928;8.150;2023-03-01T05:26:52;999.76;;;-0.96;100
75089;BME280;63673;49.928;8.150;2023-03-01T05:27:54;999.8;;;-0.96;100
75089;BME280;63673;49.928;8.150;2023-03-01T05:28:56;999.78;;;-0.97;100
75089;BME280;63673;49.928;8.150;2023-03-01T05:29:58;999.86;;;-0.96;100
75089;BME280;63673;49.928;8.150;2023-03-01T05:30:59;999.82;;;-0.96;100
75089;BME280;63673;49.928;8.150;2023-03-01T05:32:01;999.82;;;-0.97;100
75089;BME280;63673;49.928;8.150;2023-03-01T05:33:03;999.8;;;-0.97;100
75089;BME280;63673;49.928;8.150;2023-03-01T05:34:05;999.8;;;-0.98;100
75089;BME280;63673;49.928;8.150;2023-03-01T05:35:06;999.85;;;-0.98;100
75089;BME280;63673;49.928;8.150;2023-03-01T05:36:10;999.83;;;-0.99;100
75089;BME280;63673;49.928;8.150;2023-03-01T05:37:10;999.75;;;-1;100
75089;BME280;63673;49.928;8.150;2023-03-01T05:38:12;999.79;;;-1;100
75089;BME280;63673;49.928;8.150;2023-03-01T05:39:13;999.76;;;-1.01;100
75089;BME280;63673;49.928;8.150;2023-03-01T05:40:16;999.76;;;-1.01;100
75089;BME280;63673;49.928;8.150;2023-03-01T05:41:17;999.7;;;-1.01;100
75089;BME280;63673;49.928;8.150;2023-03-01T05:42:18;999.81;;;-1.02;100
75089;BME280;63673;49.928;8.150;2023-03-01T05:43:20;999.79;;;-1.04;100